Our Hubs

Gdansk im. Lecha Walesy
EPGD 220530Z 13011KT 0200 R29/0550N FZFG VV001 M00/M01 Q1010
Warszawa im. Chopina
EPWA 220530Z 13005KT 7000 FEW006 BKN023 01/M00 Q1012 TEMPO 4000 BR BKN005
  • EPWAAirport ICAO
  • Damian BelicaHUB Manager
  • SP-GLO , SP-OSO , SP-JOP , SP-WAW , LC-LXY , SP-OSPAircraft Based
  • ViewStats
Katowice Pyrzowice
EPKT 220530Z 18003KT 130V230 1600 -DZ BR BKN002 OVC003 05/05 Q1010
  • EPKTAirport ICAO
  • Rafal PiotrowskiHUB Manager
  • SP-GSA , SP-WOD , SP-ASA , SP-MVM , SP-JJJAircraft Based
  • ViewStats
Dublin
EIDW 220530Z 03007KT 9999 RA FEW002 SCT015 BKN020 10/10 Q0989 NOSIG